METAR Data
IDs: Format: Raw Decoded Include TAF

Data at: 1245 UTC 07 Jul 2020

KMEM 071154Z 00000KT 10SM FEW150 FEW250 24/22 A2998 RMK AO2 SLP149 70004 T02440222 10267 20228 53009
KMEM 071054Z 00000KT 10SM FEW150 FEW250 23/21 A2997 RMK AO2 SLP145 T02330211
KMEM 070954Z 00000KT 10SM CLR 24/21 A2996 RMK AO2 SLP141 T02390211
KMEM 070854Z 23003KT 10SM FEW040 24/21 A2996 RMK AO2 SLP139 T02390211 55002
KMEM 070754Z 00000KT 10SM FEW039 FEW180 25/21 A2995 RMK AO2 SLP137 T02500206
KMEM 070654Z 00000KT 10SM FEW160 26/21 A2996 RMK AO2 SLP139 T02560211
KMEM 070554Z 17004KT 10SM FEW160 25/21 A2996 RMK AO2 SLP142 60000 T02500211 10322 20250 403330228 50001
KMEM 070454Z 19003KT 10SM SCT043 SCT055 SCT200 27/21 A2997 RMK AO2 SLP145 T02670211
KMEM 070354Z 03005KT 10SM FEW047 FEW055 SCT075 27/20 A2997 RMK AO2 RAB27E36 SLP143 P0000 T02720200
KMEM 070254Z 08005KT 10SM BKN047 BKN095 BKN200 27/21 A2996 RMK AO2 SLP140 T02720211 53014
KMEM 070154Z 30005KT 10SM SCT085 SCT110 SCT190 26/21 A2994 RMK AO2 TSE08E24 SLP133 T02560211
KMEM 070143Z 33006KT 10SM SCT085 SCT110 SCT190 26/21 A2993 RMK AO2 TSE08E24 T02610211
KMEM 070126Z 03005KT 10SM VCTS SCT070 BKN085 BKN110 BKN190 29/18 A2994 RMK AO2 TSE08E24 T02890183
KMEM 070114Z 10006KT 10SM SCT070 BKN085 BKN110 BKN190 29/21 A2993 RMK AO2 TSE08 T02940206
KMEM 070054Z 11008KT 10SM TS SCT060CB BKN075 BKN110 BKN190 29/22 A2993 RMK AO2 TSB33 SLP131 TS SE MOV NW T02940217
KMEM 070036Z 00000KT 10SM TS SCT060CB BKN075 BKN110 BKN190 31/23 A2994 RMK AO2 TSB33 TS SE MOV NW T03110228
KMEM 062354Z 00000KT 10SM SCT080 SCT110 BKN190 32/22 A2992 RMK AO2 LTG DSNT E SLP127 60004 T03220222 10333 20283 56007
KMEM 062254Z 16006KT 10SM SCT080 SCT110 SCT185 32/21 A2992 RMK AO2 SLP128 T03170206
KMEM 062154Z 23003KT 10SM FEW065 SCT075 SCT110 32/21 A2992 RMK AO2 RAB15E35 SLP127 P0004 T03170206
KMEM 062054Z 29003KT 10SM FEW050CB SCT080 BKN110 29/23 A2994 RMK AO2 LTG DSNT W AND NW TSB1959E41 SLP134 CB E-S MOV NW CB DSNT W-NW T02890228 56010
KMEM 062045Z VRB05KT 10SM FEW050CB SCT080 BKN110 29/23 A2994 RMK AO2 LTG DSNT W TSB1959E41 CB E-SE MOV NW CB DSNT W T02890228
KMEM 062042Z 30006KT 10SM FEW050CB SCT080 BKN110 29/23 A2994 RMK AO2 LTG DSNT W TSB1959E41 CB E-SE MOV NW T02890228
KMEM 062001Z 32009KT 10SM TS SCT046CB BKN060 BKN085 31/22 A2994 RMK AO2 LTG DSNT S TSB1959 OCNL LTGICCA NW-N TS NW-N MOV NW VCSH NW-N T03060222
KMEM 061954Z 18003KT 10SM SCT046CB BKN060 BKN085 32/21 A2995 RMK AO2 SLP136 VIRGA NW-N CB W MOV W T03170211
KMEM 061917Z 18006KT 10SM BKN046 BKN060 BKN080 32/21 A2995 RMK AO2 LTG DSNT E T03170211
KMEM 061854Z 08006KT 10SM BKN044 BKN110 BKN150 33/22 A2995 RMK AO2 SLP139 T03280222
KMEM 061754Z VRB03KT 10SM FEW037 SCT110 BKN180 32/23 A2997 RMK AO2 SLP144 60000 T03170228 10317 20239 57004
KMEM 061654Z 10005KT 10SM FEW037 SCT110 BKN180 30/22 A2998 RMK AO2 SLP147 T03000217
KMEM 061554Z 09006KT 10SM FEW085 SCT120 BKN180 29/21 A2998 RMK AO2 SLP147 T02890211
KMEM 061454Z 09004KT 10SM FEW085 SCT120 BKN150 28/22 A2998 RMK AO2 RAB19E36 SLP149 P0000 60000 T02780222 50006
KMEM 061426Z 10003KT 10SM -RA FEW085 BKN120 BKN150 27/22 A2999 RMK AO2 RAB19 P0000 T02670222
KMEM 061354Z 09004KT 10SM FEW085 BKN110 BKN150 26/22 A2999 RMK AO2 RAE1256 SLP152 P0000 T02610217
KMEM 061254Z 09004KT 10SM -RA FEW095 BKN110 BKN150 24/22 A2998 RMK AO2 RAB39 SLP148 P0000 T02440222
KMEM 061154Z 14004KT 10SM SCT090 BKN120 BKN150 24/22 A2997 RMK AO2 SLP143 70012 T02390217 10239 20228 51016
KMEM 061054Z 10003KT 10SM FEW095 BKN150 23/22 A2996 RMK AO2 SLP140 T02330217
KMEM 060954Z 05006KT 10SM FEW095 BKN150 23/22 A2994 RMK AO2 SLP135 T02330217
KMEM 060854Z 02005KT 10SM BKN140 BKN230 23/22 A2992 RMK AO2 SLP127 T02330217 53001
KMEM 060754Z 34003KT 10SM BKN190 BKN250 23/22 A2990 RMK AO2 SLP121 T02280217
KMEM 060654Z 30003KT 10SM BKN180 23/21 A2989 RMK AO2 SLP118 T02280211
KMEM 060554Z 12003KT 10SM BKN180 BKN230 24/21 A2992 RMK AO2 SLP126 60012 T02390211 10250 20233 403330228 56005
KMEM 060454Z 09005KT 10SM SCT110 BKN150 24/22 A2992 RMK AO2 SLP128 T02440217
KMEM 060354Z 22004KT 9SM SCT090 BKN110 OVC150 23/22 A2992 RMK AO2 SLP126 T02330222
KMEM 060254Z 10005KT 10SM SCT090 BKN110 24/22 A2993 RMK AO2 RAE29 SLP131 P0000 60012 T02440217 53010
KMEM 060154Z 27003KT 10SM RA OVC110 23/22 A2992 RMK AO2 SLP126 P0008 T02330222
KMEM 060054Z 00000KT 10SM RA SCT090 BKN110 24/22 A2991 RMK AO2 LTG DSNT N AND NW SLP124 P0004 T02390222